Salta, Argentina
Current Conditions -  °F | °C
As of 6:00 PM on Wednesday 22 Oct 2014 (Local Time) from SASA Reporting Station
Light Rain Light Rain  
Wind Chill: 73°   Ceiling: 3000
Heat Index: 73°   Visibility: 5mi
Dew Point: 59°   Wind: 14mph
Humidity: 61%   Direction: 20°NNE
Pressure: 30.06"   Gusts: NA
Location:  24.79°S, 65.41°W
Report Text: SASA 222100Z 02012KT 8000 -RA SCT010 OVC030 23/15 Q1018
Loading
Personal Weather Stations






























Interactive Weather Map
Tropical Storm Tracking
New forecast layout! Learn more

10-Day Weather Forecast

Advertisements
Track Severe Weather on mobile